sensor_id;sensor_type;location;lat;lon;timestamp;pressure;altitude;pressure_sealevel;temperature;humidity
9740;BME280;4909;42.680;26.324;2023-03-13T00:01:50;98862.63;;;7.83;52.01
9740;BME280;4909;42.680;26.324;2023-03-13T00:04:16;98859.09;;;7.84;51.98
9740;BME280;4909;42.680;26.324;2023-03-13T00:06:43;98864.09;;;7.64;52.31
9740;BME280;4909;42.680;26.324;2023-03-13T00:09:13;98864.16;;;7.61;52.52
9740;BME280;4909;42.680;26.324;2023-03-13T00:11:40;98843.00;;;7.62;52.54
9740;BME280;4909;42.680;26.324;2023-03-13T00:14:07;98871.81;;;7.70;53.00
9740;BME280;4909;42.680;26.324;2023-03-13T00:16:34;98872.78;;;7.67;52.34
9740;BME280;4909;42.680;26.324;2023-03-13T00:19:02;98876.50;;;7.60;52.27
9740;BME280;4909;42.680;26.324;2023-03-13T00:21:30;98878.09;;;7.66;52.89
9740;BME280;4909;42.680;26.324;2023-03-13T00:23:58;98819.28;;;7.30;52.44
9740;BME280;4909;42.680;26.324;2023-03-13T00:26:27;98836.81;;;7.32;52.51
9740;BME280;4909;42.680;26.324;2023-03-13T00:28:54;98883.50;;;7.61;52.51
9740;BME280;4909;42.680;26.324;2023-03-13T00:31:22;98887.19;;;7.56;52.64
9740;BME280;4909;42.680;26.324;2023-03-13T00:33:51;98881.72;;;7.63;53.13
9740;BME280;4909;42.680;26.324;2023-03-13T00:36:20;98843.25;;;7.22;53.07
9740;BME280;4909;42.680;26.324;2023-03-13T00:38:48;98881.03;;;7.55;53.12
9740;BME280;4909;42.680;26.324;2023-03-13T00:41:17;98883.81;;;7.51;52.81
9740;BME280;4909;42.680;26.324;2023-03-13T00:43:47;98888.31;;;7.47;53.03
9740;BME280;4909;42.680;26.324;2023-03-13T00:46:16;98879.66;;;7.42;52.86
9740;BME280;4909;42.680;26.324;2023-03-13T00:48:44;98883.19;;;7.41;53.35
9740;BME280;4909;42.680;26.324;2023-03-13T00:51:12;98862.34;;;7.32;53.34
9740;BME280;4909;42.680;26.324;2023-03-13T00:53:39;98876.47;;;7.62;52.55
9740;BME280;4909;42.680;26.324;2023-03-13T00:56:07;98881.69;;;7.65;52.89
9740;BME280;4909;42.680;26.324;2023-03-13T00:58:36;98853.69;;;7.58;52.78
9740;BME280;4909;42.680;26.324;2023-03-13T01:01:09;98847.09;;;7.41;52.36
9740;BME280;4909;42.680;26.324;2023-03-13T01:03:37;98889.91;;;7.54;52.91
9740;BME280;4909;42.680;26.324;2023-03-13T01:06:06;98857.34;;;7.54;52.22
9740;BME280;4909;42.680;26.324;2023-03-13T01:08:33;98886.13;;;7.63;51.97
9740;BME280;4909;42.680;26.324;2023-03-13T01:11:02;98884.38;;;7.62;52.49
9740;BME280;4909;42.680;26.324;2023-03-13T01:13:30;98886.66;;;7.45;53.24
9740;BME280;4909;42.680;26.324;2023-03-13T01:16:01;98887.31;;;7.51;53.25
9740;BME280;4909;42.680;26.324;2023-03-13T01:18:30;98888.66;;;7.66;52.62
9740;BME280;4909;42.680;26.324;2023-03-13T01:20:56;98891.53;;;7.58;52.59
9740;BME280;4909;42.680;26.324;2023-03-13T01:23:23;98892.41;;;7.59;52.47
9740;BME280;4909;42.680;26.324;2023-03-13T01:25:51;98894.38;;;7.51;52.42
9740;BME280;4909;42.680;26.324;2023-03-13T01:28:17;98892.31;;;7.62;53.05
9740;BME280;4909;42.680;26.324;2023-03-13T01:30:44;98896.06;;;7.55;52.88
9740;BME280;4909;42.680;26.324;2023-03-13T01:33:11;98896.06;;;7.55;52.89
9740;BME280;4909;42.680;26.324;2023-03-13T01:35:39;98895.91;;;7.59;52.91
9740;BME280;4909;42.680;26.324;2023-03-13T01:38:06;98906.03;;;7.43;53.02
9740;BME280;4909;42.680;26.324;2023-03-13T01:40:38;98897.16;;;7.46;53.03
9740;BME280;4909;42.680;26.324;2023-03-13T01:43:16;98900.19;;;7.32;52.94
9740;BME280;4909;42.680;26.324;2023-03-13T01:45:57;98917.03;;;7.27;53.66
9740;BME280;4909;42.680;26.324;2023-03-13T01:48:31;98919.50;;;7.34;53.57
9740;BME280;4909;42.680;26.324;2023-03-13T01:51:02;98921.56;;;7.22;53.73
9740;BME280;4909;42.680;26.324;2023-03-13T01:53:33;98929.28;;;7.31;53.60
9740;BME280;4909;42.680;26.324;2023-03-13T01:56:01;98930.44;;;7.21;53.79
9740;BME280;4909;42.680;26.324;2023-03-13T01:58:30;98930.31;;;7.25;54.60
9740;BME280;4909;42.680;26.324;2023-03-13T02:00:58;98933.56;;;7.35;53.16
9740;BME280;4909;42.680;26.324;2023-03-13T02:03:26;98940.00;;;7.56;53.58
9740;BME280;4909;42.680;26.324;2023-03-13T02:05:54;98941.69;;;7.60;52.87
9740;BME280;4909;42.680;26.324;2023-03-13T02:08:29;98935.84;;;7.49;52.24
9740;BME280;4909;42.680;26.324;2023-03-13T02:11:03;98952.41;;;7.54;52.49
9740;BME280;4909;42.680;26.324;2023-03-13T02:13:31;98949.91;;;7.49;52.72
9740;BME280;4909;42.680;26.324;2023-03-13T02:15:58;98956.44;;;7.67;53.29
9740;BME280;4909;42.680;26.324;2023-03-13T02:18:25;98963.25;;;7.75;52.41
9740;BME280;4909;42.680;26.324;2023-03-13T02:20:54;98960.66;;;7.74;52.10
9740;BME280;4909;42.680;26.324;2023-03-13T02:23:29;98971.72;;;7.56;52.36
9740;BME280;4909;42.680;26.324;2023-03-13T02:26:00;98978.09;;;7.49;52.57
9740;BME280;4909;42.680;26.324;2023-03-13T02:28:29;98981.09;;;7.35;52.89
9740;BME280;4909;42.680;26.324;2023-03-13T02:30:58;98941.56;;;6.98;53.01
9740;BME280;4909;42.680;26.324;2023-03-13T02:33:27;98989.25;;;7.26;53.39
9740;BME280;4909;42.680;26.324;2023-03-13T02:35:54;98988.91;;;7.04;53.19
9740;BME280;4909;42.680;26.324;2023-03-13T02:38:24;98989.47;;;7.17;53.99
9740;BME280;4909;42.680;26.324;2023-03-13T02:40:52;98999.25;;;7.13;53.73
9740;BME280;4909;42.680;26.324;2023-03-13T02:43:25;99004.59;;;7.10;54.10
9740;BME280;4909;42.680;26.324;2023-03-13T02:46:07;98987.06;;;7.08;54.24
9740;BME280;4909;42.680;26.324;2023-03-13T02:48:37;98994.91;;;7.11;53.84
9740;BME280;4909;42.680;26.324;2023-03-13T02:51:10;98998.38;;;7.13;54.43
9740;BME280;4909;42.680;26.324;2023-03-13T02:53:39;98996.53;;;7.16;54.06
9740;BME280;4909;42.680;26.324;2023-03-13T02:56:06;98976.47;;;7.09;53.86
9740;BME280;4909;42.680;26.324;2023-03-13T02:58:41;98999.13;;;7.18;53.74
9740;BME280;4909;42.680;26.324;2023-03-13T03:01:08;99015.94;;;7.14;53.88
9740;BME280;4909;42.680;26.324;2023-03-13T03:03:35;98954.56;;;6.70;54.67
9740;BME280;4909;42.680;26.324;2023-03-13T03:06:03;99015.53;;;6.95;54.64
9740;BME280;4909;42.680;26.324;2023-03-13T03:08:31;99023.41;;;6.96;55.52
9740;BME280;4909;42.680;26.324;2023-03-13T03:10:58;98999.81;;;6.90;54.48
9740;BME280;4909;42.680;26.324;2023-03-13T03:13:25;99022.34;;;7.04;54.74
9740;BME280;4909;42.680;26.324;2023-03-13T03:15:53;99036.19;;;7.13;54.55
9740;BME280;4909;42.680;26.324;2023-03-13T03:18:20;99029.47;;;7.00;54.75
9740;BME280;4909;42.680;26.324;2023-03-13T03:20:46;99026.09;;;6.95;54.55
9740;BME280;4909;42.680;26.324;2023-03-13T03:23:13;99028.41;;;7.07;54.94
9740;BME280;4909;42.680;26.324;2023-03-13T03:25:40;99022.97;;;7.15;54.44
9740;BME280;4909;42.680;26.324;2023-03-13T03:28:07;99019.06;;;7.29;54.19
9740;BME280;4909;42.680;26.324;2023-03-13T03:30:33;99021.78;;;7.26;53.91
9740;BME280;4909;42.680;26.324;2023-03-13T03:33:03;99022.47;;;7.34;53.24
9740;BME280;4909;42.680;26.324;2023-03-13T03:35:30;99017.06;;;7.39;53.37
9740;BME280;4909;42.680;26.324;2023-03-13T03:37:58;99022.13;;;7.47;53.79
9740;BME280;4909;42.680;26.324;2023-03-13T03:40:25;99027.28;;;7.53;53.22
9740;BME280;4909;42.680;26.324;2023-03-13T03:42:52;99026.16;;;7.61;53.26
9740;BME280;4909;42.680;26.324;2023-03-13T03:45:19;99033.06;;;7.67;52.68
9740;BME280;4909;42.680;26.324;2023-03-13T03:47:46;99031.25;;;7.69;53.28
9740;BME280;4909;42.680;26.324;2023-03-13T03:50:14;99032.28;;;7.63;53.29
9740;BME280;4909;42.680;26.324;2023-03-13T03:52:41;99039.88;;;7.75;53.13
9740;BME280;4909;42.680;26.324;2023-03-13T03:55:10;99045.16;;;7.75;52.64
9740;BME280;4909;42.680;26.324;2023-03-13T03:57:37;99051.31;;;7.76;52.62
9740;BME280;4909;42.680;26.324;2023-03-13T04:00:05;99056.31;;;7.86;52.39
9740;BME280;4909;42.680;26.324;2023-03-13T04:02:32;99065.50;;;7.72;52.81
9740;BME280;4909;42.680;26.324;2023-03-13T04:04:59;99065.13;;;7.53;54.14
9740;BME280;4909;42.680;26.324;2023-03-13T04:07:27;99055.19;;;7.63;53.45
9740;BME280;4909;42.680;26.324;2023-03-13T04:09:54;99063.09;;;7.63;53.88
9740;BME280;4909;42.680;26.324;2023-03-13T04:12:21;99069.38;;;7.59;53.38
9740;BME280;4909;42.680;26.324;2023-03-13T04:14:48;99061.94;;;7.40;54.15
9740;BME280;4909;42.680;26.324;2023-03-13T04:17:15;99075.97;;;7.41;53.88
9740;BME280;4909;42.680;26.324;2023-03-13T04:19:42;99074.72;;;7.56;54.25
9740;BME280;4909;42.680;26.324;2023-03-13T04:22:08;99076.91;;;7.74;53.57
9740;BME280;4909;42.680;26.324;2023-03-13T04:24:37;99079.25;;;7.84;53.07
9740;BME280;4909;42.680;26.324;2023-03-13T04:27:03;99087.72;;;7.99;52.72
9740;BME280;4909;42.680;26.324;2023-03-13T04:29:31;99084.31;;;7.94;52.69
9740;BME280;4909;42.680;26.324;2023-03-13T04:31:58;99090.44;;;7.94;52.64
9740;BME280;4909;42.680;26.324;2023-03-13T04:34:24;99086.00;;;7.96;52.79
9740;BME280;4909;42.680;26.324;2023-03-13T04:36:51;99076.72;;;7.80;52.49
9740;BME280;4909;42.680;26.324;2023-03-13T04:39:18;99097.19;;;8.06;52.34
9740;BME280;4909;42.680;26.324;2023-03-13T04:41:50;99099.47;;;8.19;52.52
9740;BME280;4909;42.680;26.324;2023-03-13T04:44:17;99111.06;;;7.81;53.87
9740;BME280;4909;42.680;26.324;2023-03-13T04:46:44;99106.09;;;7.69;53.78
9740;BME280;4909;42.680;26.324;2023-03-13T04:49:11;99113.91;;;7.74;53.98
9740;BME280;4909;42.680;26.324;2023-03-13T04:51:39;99120.25;;;7.99;52.91
9740;BME280;4909;42.680;26.324;2023-03-13T04:54:06;99121.84;;;8.06;52.64
9740;BME280;4909;42.680;26.324;2023-03-13T04:56:33;99128.44;;;7.90;53.68
9740;BME280;4909;42.680;26.324;2023-03-13T04:59:01;99131.34;;;7.79;54.31
9740;BME280;4909;42.680;26.324;2023-03-13T05:01:28;99090.38;;;7.65;53.57
9740;BME280;4909;42.680;26.324;2023-03-13T05:03:55;99136.19;;;7.98;53.26
9740;BME280;4909;42.680;26.324;2023-03-13T05:06:22;99138.47;;;7.77;54.09
9740;BME280;4909;42.680;26.324;2023-03-13T05:08:48;99137.72;;;7.72;54.38
9740;BME280;4909;42.680;26.324;2023-03-13T05:11:15;99148.28;;;7.72;54.26
9740;BME280;4909;42.680;26.324;2023-03-13T05:13:42;99142.75;;;7.83;54.78
9740;BME280;4909;42.680;26.324;2023-03-13T05:16:10;99140.03;;;8.18;54.29
9740;BME280;4909;42.680;26.324;2023-03-13T05:18:37;99146.06;;;8.23;53.56
9740;BME280;4909;42.680;26.324;2023-03-13T05:21:04;99145.81;;;8.00;53.48
9740;BME280;4909;42.680;26.324;2023-03-13T05:23:31;99141.53;;;7.95;53.92
9740;BME280;4909;42.680;26.324;2023-03-13T05:25:58;99143.00;;;8.06;54.12
9740;BME280;4909;42.680;26.324;2023-03-13T05:28:25;99123.34;;;8.16;53.47
9740;BME280;4909;42.680;26.324;2023-03-13T05:30:52;99151.78;;;8.42;52.98
9740;BME280;4909;42.680;26.324;2023-03-13T05:33:20;99157.13;;;8.39;53.20
9740;BME280;4909;42.680;26.324;2023-03-13T05:35:47;99154.34;;;8.44;52.59
9740;BME280;4909;42.680;26.324;2023-03-13T05:38:14;99155.06;;;8.50;52.33
9740;BME280;4909;42.680;26.324;2023-03-13T05:40:41;99158.16;;;8.66;51.73
9740;BME280;4909;42.680;26.324;2023-03-13T05:43:07;99164.97;;;8.73;51.79
9740;BME280;4909;42.680;26.324;2023-03-13T05:45:34;99161.44;;;8.74;51.90
9740;BME280;4909;42.680;26.324;2023-03-13T05:48:01;99161.59;;;8.68;51.76
9740;BME280;4909;42.680;26.324;2023-03-13T05:50:29;99167.63;;;8.73;51.92
9740;BME280;4909;42.680;26.324;2023-03-13T05:52:56;99168.69;;;8.97;51.37
9740;BME280;4909;42.680;26.324;2023-03-13T05:55:23;99163.19;;;9.04;50.94
9740;BME280;4909;42.680;26.324;2023-03-13T05:57:49;99159.97;;;8.93;51.27
9740;BME280;4909;42.680;26.324;2023-03-13T06:00:17;99171.28;;;9.00;50.31
9740;BME280;4909;42.680;26.324;2023-03-13T06:02:44;99126.31;;;8.98;50.57
9740;BME280;4909;42.680;26.324;2023-03-13T06:05:10;99169.66;;;9.51;48.63
9740;BME280;4909;42.680;26.324;2023-03-13T06:07:39;99172.75;;;9.66;47.81
9740;BME280;4909;42.680;26.324;2023-03-13T06:10:06;99173.00;;;9.84;46.69
9740;BME280;4909;42.680;26.324;2023-03-13T06:12:33;99171.78;;;9.94;46.85
9740;BME280;4909;42.680;26.324;2023-03-13T06:15:00;99166.25;;;10.02;47.08
9740;BME280;4909;42.680;26.324;2023-03-13T06:17:27;99180.88;;;10.12;46.55
9740;BME280;4909;42.680;26.324;2023-03-13T06:19:53;99183.00;;;10.29;46.20
9740;BME280;4909;42.680;26.324;2023-03-13T06:22:20;99181.13;;;11.50;42.93
9740;BME280;4909;42.680;26.324;2023-03-13T06:24:48;99178.41;;;13.73;38.76
9740;BME280;4909;42.680;26.324;2023-03-13T06:27:16;99176.69;;;15.25;34.46
9740;BME280;4909;42.680;26.324;2023-03-13T06:29:42;99180.25;;;17.64;30.98
9740;BME280;4909;42.680;26.324;2023-03-13T06:32:09;99177.03;;;19.66;27.01
9740;BME280;4909;42.680;26.324;2023-03-13T06:34:36;99186.97;;;18.64;27.17
9740;BME280;4909;42.680;26.324;2023-03-13T06:37:03;99188.41;;;20.43;26.14
9740;BME280;4909;42.680;26.324;2023-03-13T06:39:30;99182.63;;;20.82;24.76
9740;BME280;4909;42.680;26.324;2023-03-13T06:41:58;99191.84;;;21.59;24.36
9740;BME280;4909;42.680;26.324;2023-03-13T06:44:25;99190.59;;;21.96;23.62
9740;BME280;4909;42.680;26.324;2023-03-13T06:46:52;99199.31;;;22.32;23.69
9740;BME280;4909;42.680;26.324;2023-03-13T06:49:19;99180.09;;;22.99;22.84
9740;BME280;4909;42.680;26.324;2023-03-13T06:51:45;99205.63;;;23.26;22.37
9740;BME280;4909;42.680;26.324;2023-03-13T06:54:12;99200.47;;;24.43;21.64
9740;BME280;4909;42.680;26.324;2023-03-13T06:56:39;99196.88;;;23.74;21.48
9740;BME280;4909;42.680;26.324;2023-03-13T06:59:07;99202.09;;;22.41;22.60
9740;BME280;4909;42.680;26.324;2023-03-13T07:01:34;99205.44;;;22.77;22.79
9740;BME280;4909;42.680;26.324;2023-03-13T07:04:01;99198.56;;;22.73;21.98
9740;BME280;4909;42.680;26.324;2023-03-13T07:06:27;99203.94;;;23.56;20.32
9740;BME280;4909;42.680;26.324;2023-03-13T07:08:54;99192.03;;;24.75;18.15
9740;BME280;4909;42.680;26.324;2023-03-13T07:11:21;99200.88;;;25.99;18.00
9740;BME280;4909;42.680;26.324;2023-03-13T07:13:48;99191.06;;;24.95;18.56
9740;BME280;4909;42.680;26.324;2023-03-13T07:16:16;99187.56;;;25.13;18.54
9740;BME280;4909;42.680;26.324;2023-03-13T07:18:42;99193.78;;;26.69;16.18
9740;BME280;4909;42.680;26.324;2023-03-13T07:21:10;99192.41;;;27.00;15.93
9740;BME280;4909;42.680;26.324;2023-03-13T07:23:38;99190.53;;;27.78;15.89
9740;BME280;4909;42.680;26.324;2023-03-13T07:26:08;99189.91;;;27.58;16.33
9740;BME280;4909;42.680;26.324;2023-03-13T07:28:35;99185.78;;;28.22;15.61
9740;BME280;4909;42.680;26.324;2023-03-13T07:31:04;99176.75;;;28.38;14.57
9740;BME280;4909;42.680;26.324;2023-03-13T07:33:32;99183.75;;;28.40;14.83
9740;BME280;4909;42.680;26.324;2023-03-13T07:35:59;99181.97;;;26.60;15.86
9740;BME280;4909;42.680;26.324;2023-03-13T07:38:26;99191.75;;;27.06;14.98
9740;BME280;4909;42.680;26.324;2023-03-13T07:40:54;99194.56;;;27.74;14.42
9740;BME280;4909;42.680;26.324;2023-03-13T07:43:22;99186.81;;;25.76;12.26
9740;BME280;4909;42.680;26.324;2023-03-13T07:45:51;99180.81;;;26.00;11.15
9740;BME280;4909;42.680;26.324;2023-03-13T07:48:18;99172.25;;;25.31;11.42
9740;BME280;4909;42.680;26.324;2023-03-13T07:50:46;99145.88;;;22.98;12.28
9740;BME280;4909;42.680;26.324;2023-03-13T07:53:13;99175.53;;;20.81;13.13
9740;BME280;4909;42.680;26.324;2023-03-13T07:55:51;99171.91;;;21.93;13.46
9740;BME280;4909;42.680;26.324;2023-03-13T07:58:18;99169.56;;;22.64;13.21
9740;BME280;4909;42.680;26.324;2023-03-13T08:00:45;99181.19;;;24.37;13.31
9740;BME280;4909;42.680;26.324;2023-03-13T08:03:12;99167.47;;;22.88;15.53
9740;BME280;4909;42.680;26.324;2023-03-13T08:05:39;99176.84;;;23.56;14.20
9740;BME280;4909;42.680;26.324;2023-03-13T08:08:07;99187.56;;;23.36;15.08
9740;BME280;4909;42.680;26.324;2023-03-13T08:10:35;99152.34;;;23.36;14.88
9740;BME280;4909;42.680;26.324;2023-03-13T08:13:02;99176.19;;;24.80;15.64
9740;BME280;4909;42.680;26.324;2023-03-13T08:15:29;99179.66;;;25.38;15.69
9740;BME280;4909;42.680;26.324;2023-03-13T08:17:56;99185.91;;;25.02;15.67
9740;BME280;4909;42.680;26.324;2023-03-13T08:20:22;99157.19;;;23.73;16.64
9740;BME280;4909;42.680;26.324;2023-03-13T08:22:49;99179.47;;;24.64;15.91
9740;BME280;4909;42.680;26.324;2023-03-13T08:25:17;99179.47;;;23.16;16.59
9740;BME280;4909;42.680;26.324;2023-03-13T08:27:44;99173.38;;;21.97;17.93
9740;BME280;4909;42.680;26.324;2023-03-13T08:30:12;99177.59;;;22.22;18.21
9740;BME280;4909;42.680;26.324;2023-03-13T08:32:39;99183.00;;;23.37;17.48
9740;BME280;4909;42.680;26.324;2023-03-13T08:35:07;99172.41;;;23.55;17.69
9740;BME280;4909;42.680;26.324;2023-03-13T08:37:34;99166.25;;;23.93;16.65
9740;BME280;4909;42.680;26.324;2023-03-13T08:40:01;99167.47;;;21.03;18.25
9740;BME280;4909;42.680;26.324;2023-03-13T08:42:36;99170.22;;;21.48;18.22
9740;BME280;4909;42.680;26.324;2023-03-13T08:45:06;99176.00;;;23.04;16.90
9740;BME280;4909;42.680;26.324;2023-03-13T08:47:33;99169.41;;;23.27;15.50
9740;BME280;4909;42.680;26.324;2023-03-13T08:50:01;99154.63;;;24.40;14.89
9740;BME280;4909;42.680;26.324;2023-03-13T08:52:31;99121.63;;;24.93;14.54
9740;BME280;4909;42.680;26.324;2023-03-13T08:54:58;99162.63;;;23.73;15.67
9740;BME280;4909;42.680;26.324;2023-03-13T08:57:25;99152.63;;;24.90;14.97
9740;BME280;4909;42.680;26.324;2023-03-13T08:59:54;99159.47;;;24.94;14.00
9740;BME280;4909;42.680;26.324;2023-03-13T09:02:21;99162.34;;;24.83;14.12
9740;BME280;4909;42.680;26.324;2023-03-13T09:04:47;99158.19;;;24.31;14.71
9740;BME280;4909;42.680;26.324;2023-03-13T09:07:14;99160.16;;;24.10;14.53
9740;BME280;4909;42.680;26.324;2023-03-13T09:09:42;99161.50;;;23.75;14.36
9740;BME280;4909;42.680;26.324;2023-03-13T09:12:09;99156.13;;;23.45;14.46
9740;BME280;4909;42.680;26.324;2023-03-13T09:14:36;99152.78;;;23.62;13.74
9740;BME280;4909;42.680;26.324;2023-03-13T09:17:04;99134.75;;;21.41;15.33
9740;BME280;4909;42.680;26.324;2023-03-13T09:19:31;99144.41;;;21.77;15.25
9740;BME280;4909;42.680;26.324;2023-03-13T09:21:58;99149.50;;;22.45;14.64
9740;BME280;4909;42.680;26.324;2023-03-13T09:24:25;99142.41;;;22.01;14.41
9740;BME280;4909;42.680;26.324;2023-03-13T09:26:52;99137.75;;;21.81;14.26
9740;BME280;4909;42.680;26.324;2023-03-13T09:29:19;99134.16;;;21.15;15.22
9740;BME280;4909;42.680;26.324;2023-03-13T09:31:46;99133.78;;;21.42;14.98
9740;BME280;4909;42.680;26.324;2023-03-13T09:34:14;99131.69;;;21.23;15.67
9740;BME280;4909;42.680;26.324;2023-03-13T09:36:41;99134.97;;;19.89;16.96
9740;BME280;4909;42.680;26.324;2023-03-13T09:39:08;99136.22;;;19.96;16.81
9740;BME280;4909;42.680;26.324;2023-03-13T09:41:38;99144.69;;;19.79;17.23
9740;BME280;4909;42.680;26.324;2023-03-13T09:44:15;99141.66;;;20.31;16.99
9740;BME280;4909;42.680;26.324;2023-03-13T09:46:58;99144.16;;;20.21;16.74
9740;BME280;4909;42.680;26.324;2023-03-13T09:49:33;99147.41;;;18.79;16.49
9740;BME280;4909;42.680;26.324;2023-03-13T09:52:11;99143.31;;;18.74;17.17
9740;BME280;4909;42.680;26.324;2023-03-13T09:54:41;99141.06;;;18.67;16.98
9740;BME280;4909;42.680;26.324;2023-03-13T09:57:17;99143.84;;;18.79;17.54
9740;BME280;4909;42.680;26.324;2023-03-13T09:59:50;99142.66;;;18.70;17.60
9740;BME280;4909;42.680;26.324;2023-03-13T10:02:29;99134.81;;;18.15;17.62
9740;BME280;4909;42.680;26.324;2023-03-13T10:05:04;99132.59;;;17.95;17.84
9740;BME280;4909;42.680;26.324;2023-03-13T10:07:33;99116.84;;;17.76;18.33
9740;BME280;4909;42.680;26.324;2023-03-13T10:10:02;99066.06;;;17.18;18.24
9740;BME280;4909;42.680;26.324;2023-03-13T10:12:35;99126.81;;;16.90;18.53
9740;BME280;4909;42.680;26.324;2023-03-13T10:15:20;99114.88;;;16.52;19.11
9740;BME280;4909;42.680;26.324;2023-03-13T10:17:49;99094.47;;;16.65;19.46
9740;BME280;4909;42.680;26.324;2023-03-13T10:20:21;99096.16;;;16.66;19.83
9740;BME280;4909;42.680;26.324;2023-03-13T10:22:50;99112.94;;;16.26;19.67
9740;BME280;4909;42.680;26.324;2023-03-13T10:25:27;99101.75;;;16.47;20.06
9740;BME280;4909;42.680;26.324;2023-03-13T10:27:55;99106.03;;;16.66;20.03
9740;BME280;4909;42.680;26.324;2023-03-13T10:30:24;99108.16;;;17.03;19.95
9740;BME280;4909;42.680;26.324;2023-03-13T10:32:54;99104.22;;;17.09;19.22
9740;BME280;4909;42.680;26.324;2023-03-13T10:35:31;99097.81;;;16.83;19.24
9740;BME280;4909;42.680;26.324;2023-03-13T10:38:02;99097.03;;;16.23;19.86
9740;BME280;4909;42.680;26.324;2023-03-13T10:40:30;99096.38;;;15.27;20.30
9740;BME280;4909;42.680;26.324;2023-03-13T10:43:03;99100.22;;;14.74;20.44
9740;BME280;4909;42.680;26.324;2023-03-13T10:45:32;99095.44;;;15.28;20.56
9740;BME280;4909;42.680;26.324;2023-03-13T10:48:03;99095.34;;;14.98;20.58
9740;BME280;4909;42.680;26.324;2023-03-13T10:50:41;99098.88;;;14.98;20.42
9740;BME280;4909;42.680;26.324;2023-03-13T10:53:22;99072.59;;;15.38;20.47
9740;BME280;4909;42.680;26.324;2023-03-13T10:55:52;99080.16;;;15.45;20.25
9740;BME280;4909;42.680;26.324;2023-03-13T10:58:22;99094.53;;;15.90;20.48
9740;BME280;4909;42.680;26.324;2023-03-13T11:00:51;99083.50;;;15.80;20.43
9740;BME280;4909;42.680;26.324;2023-03-13T11:03:34;99078.28;;;15.32;21.22
9740;BME280;4909;42.680;26.324;2023-03-13T11:06:02;99088.88;;;15.17;21.53
9740;BME280;4909;42.680;26.324;2023-03-13T11:08:34;99076.53;;;15.31;21.76
9740;BME280;4909;42.680;26.324;2023-03-13T11:11:03;99066.28;;;15.39;21.32
9740;BME280;4909;42.680;26.324;2023-03-13T11:13:35;99081.06;;;14.82;21.69
9740;BME280;4909;42.680;26.324;2023-03-13T11:16:18;99075.94;;;14.94;21.32
9740;BME280;4909;42.680;26.324;2023-03-13T11:19:18;99075.34;;;15.05;22.32
9740;BME280;4909;42.680;26.324;2023-03-13T11:21:59;99071.16;;;14.68;23.04
9740;BME280;4909;42.680;26.324;2023-03-13T11:24:38;98974.78;;;13.72;23.33
9740;BME280;4909;42.680;26.324;2023-03-13T11:27:14;99064.53;;;14.75;23.16
9740;BME280;4909;42.680;26.324;2023-03-13T11:29:49;99062.94;;;15.19;23.40
9740;BME280;4909;42.680;26.324;2023-03-13T11:32:22;99039.75;;;15.20;22.86
9740;BME280;4909;42.680;26.324;2023-03-13T11:34:55;99043.34;;;15.19;22.66
9740;BME280;4909;42.680;26.324;2023-03-13T11:37:26;99044.19;;;14.88;22.94
9740;BME280;4909;42.680;26.324;2023-03-13T11:39:58;99020.19;;;14.05;23.83
9740;BME280;4909;42.680;26.324;2023-03-13T11:42:44;99027.41;;;14.38;24.34
9740;BME280;4909;42.680;26.324;2023-03-13T11:45:27;99038.72;;;14.58;23.85
9740;BME280;4909;42.680;26.324;2023-03-13T11:48:03;99032.97;;;14.82;23.43
9740;BME280;4909;42.680;26.324;2023-03-13T11:50:36;99037.91;;;14.23;23.65
9740;BME280;4909;42.680;26.324;2023-03-13T11:53:29;99027.09;;;14.59;23.63
9740;BME280;4909;42.680;26.324;2023-03-13T11:56:04;99021.56;;;14.62;23.72
9740;BME280;4909;42.680;26.324;2023-03-13T11:58:46;99032.75;;;14.38;23.81
9740;BME280;4909;42.680;26.324;2023-03-13T12:01:18;99030.84;;;14.22;24.03
9740;BME280;4909;42.680;26.324;2023-03-13T12:03:54;99024.13;;;14.48;23.62
9740;BME280;4909;42.680;26.324;2023-03-13T12:06:25;99011.69;;;14.80;23.76
9740;BME280;4909;42.680;26.324;2023-03-13T12:08:59;99001.31;;;14.58;24.04
9740;BME280;4909;42.680;26.324;2023-03-13T12:11:31;99004.69;;;14.46;23.56
9740;BME280;4909;42.680;26.324;2023-03-13T12:14:02;99004.47;;;14.66;23.89
9740;BME280;4909;42.680;26.324;2023-03-13T12:16:41;98996.53;;;14.81;23.87
9740;BME280;4909;42.680;26.324;2023-03-13T12:19:16;99015.63;;;14.42;24.02
9740;BME280;4909;42.680;26.324;2023-03-13T12:21:48;99004.22;;;13.88;25.10
9740;BME280;4909;42.680;26.324;2023-03-13T12:24:26;99001.84;;;13.82;25.35
9740;BME280;4909;42.680;26.324;2023-03-13T12:26:56;99000.63;;;14.05;25.15
9740;BME280;4909;42.680;26.324;2023-03-13T12:29:36;98998.34;;;14.14;25.64
9740;BME280;4909;42.680;26.324;2023-03-13T12:32:11;98999.94;;;14.18;24.94
9740;BME280;4909;42.680;26.324;2023-03-13T12:34:51;99002.66;;;13.49;25.74
9740;BME280;4909;42.680;26.324;2023-03-13T12:37:25;98998.19;;;13.50;26.00
9740;BME280;4909;42.680;26.324;2023-03-13T12:39:56;98999.03;;;13.51;26.51
9740;BME280;4909;42.680;26.324;2023-03-13T12:42:35;98961.94;;;13.63;26.61
9740;BME280;4909;42.680;26.324;2023-03-13T12:45:06;98992.97;;;13.47;26.87
9740;BME280;4909;42.680;26.324;2023-03-13T12:47:44;98996.63;;;13.27;27.38
9740;BME280;4909;42.680;26.324;2023-03-13T12:50:31;99000.97;;;13.47;27.36
9740;BME280;4909;42.680;26.324;2023-03-13T12:53:23;98993.06;;;13.63;27.15
9740;BME280;4909;42.680;26.324;2023-03-13T12:56:14;98988.50;;;13.82;26.75
9740;BME280;4909;42.680;26.324;2023-03-13T12:58:47;98998.41;;;14.30;26.01
9740;BME280;4909;42.680;26.324;2023-03-13T13:01:20;99003.56;;;14.33;26.08
9740;BME280;4909;42.680;26.324;2023-03-13T13:03:54;98993.69;;;13.85;28.34
9740;BME280;4909;42.680;26.324;2023-03-13T13:06:22;98995.03;;;13.59;28.75
9740;BME280;4909;42.680;26.324;2023-03-13T13:09:05;99009.41;;;13.74;28.64
9740;BME280;4909;42.680;26.324;2023-03-13T13:11:48;99008.34;;;13.76;28.74
9740;BME280;4909;42.680;26.324;2023-03-13T13:17:22;99005.06;;;13.88;29.76
9740;BME280;4909;42.680;26.324;2023-03-13T13:19:54;99015.34;;;13.62;29.88
9740;BME280;4909;42.680;26.324;2023-03-13T13:22:47;99006.31;;;13.47;30.59
9740;BME280;4909;42.680;26.324;2023-03-13T13:25:27;99006.75;;;13.21;30.53
9740;BME280;4909;42.680;26.324;2023-03-13T13:28:10;98996.94;;;13.02;31.33
9740;BME280;4909;42.680;26.324;2023-03-13T13:30:37;99006.34;;;12.92;32.05
9740;BME280;4909;42.680;26.324;2023-03-13T13:36:31;99004.97;;;13.21;31.83